Time;durP1;ratioP1;P1;durP2;ratioP2;P2;SDS_P1;SDS_P2;PMS_P1;PMS_P2;Temp;Humidity;BMP_temperature;BMP_pressure;BME280_temperature;BME280_humidity;BME280_pressure;Samples;Min_cycle;Max_cycle;Signal;HPM_P1;HPM_P2
2023/09/16 07:01:51;;;;;;;0.10;0.10;;;22.30;99.90;25.80;101174.00;;;;6078228;22;2461068;-82
2023/09/16 07:05:01;;;;;;;0.10;0.10;;;22.30;99.90;25.80;101149.00;;;;6191001;23;20252;-80
2023/09/16 07:07:27;;;;;;;0.10;0.10;;;21.90;99.90;27.00;101161.00;;;;6169238;23;20586;-81
2023/09/16 07:10:51;;;;;;;0.10;0.10;;;22.30;99.90;27.80;101087.00;;;;6191819;23;20238;-86
2023/09/16 07:13:38;;;;;;;0.32;0.32;;;22.80;99.90;28.40;101194.00;;;;6190966;23;20162;-79
2023/09/16 07:16:19;;;;;;;2.42;2.22;;;23.20;99.90;29.10;101203.00;;;;6191357;23;20165;-80
2023/09/16 07:19:29;;;;;;;1.10;1.10;;;24.10;99.90;28.60;101222.00;;;;6215839;23;20208;-81
2023/09/16 07:22:08;;;;;;;0.10;0.10;;;24.30;99.90;29.10;101181.00;;;;6191784;23;20178;-79
2023/09/16 07:24:53;;;;;;;0.15;0.15;;;24.60;99.90;27.50;101195.00;;;;6216016;23;20143;-79
2023/09/16 07:27:22;;;;;;;1.33;1.33;;;24.30;99.90;25.20;101218.00;;;;6214522;23;20138;-78
2023/09/16 07:30:09;;;;;;;0.10;0.10;;;23.00;99.90;26.30;101174.00;;;;6189939;23;20168;-78
2023/09/16 07:32:45;;;;;;;0.10;0.10;;;22.40;99.90;27.40;101190.00;;;;6167899;23;20645;-79
2023/09/16 07:35:11;;;;;;;0.10;0.10;;;23.00;99.90;28.60;101193.00;;;;6190493;23;20158;-79
2023/09/16 07:37:40;;;;;;;0.10;0.10;;;23.80;99.90;29.40;101215.00;;;;6190713;23;20511;-79
2023/09/16 07:40:09;;;;;;;1.40;1.30;;;24.40;99.90;28.20;101239.00;;;;6215220;23;20170;-78
2023/09/16 07:42:52;;;;;;;0.10;0.10;;;24.50;99.90;27.30;101245.00;;;;6190622;23;20479;-79
2023/09/16 07:45:26;;;;;;;0.10;0.10;;;23.70;99.90;28.80;101230.00;;;;6190361;23;20154;-79
2023/09/16 07:48:10;;;;;;;0.15;0.15;;;24.00;99.90;29.60;101223.00;;;;6215350;23;20236;-82
2023/09/16 07:50:58;;;;;;;0.40;0.40;;;24.70;99.90;30.00;101215.00;;;;6189701;23;20158;-82
2023/09/16 07:53:47;;;;;;;0.10;0.10;;;25.10;99.90;30.20;101202.00;;;;6190254;23;20169;-80
2023/09/16 07:56:33;;;;;;;0.20;0.20;;;25.90;99.90;30.50;101214.00;;;;6192594;23;20157;-82
2023/09/16 07:59:28;;;;;;;0.10;0.10;;;26.10;99.90;28.90;101234.00;;;;6190090;23;20189;-79
2023/09/16 08:02:17;;;;;;;0.10;0.10;;;25.50;99.90;29.10;101243.00;;;;6159855;23;20205;-83
2023/09/16 08:07:57;;;;;;;0.30;0.30;;;25.20;99.90;30.70;101243.00;;;;6168041;23;20485;-81
2023/09/16 08:10:51;;;;;;;0.47;0.45;;;25.80;99.90;29.70;101243.00;;;;6185067;23;20185;-80
2023/09/16 08:13:40;;;;;;;0.20;0.20;;;25.90;99.90;29.80;101252.00;;;;6161018;23;20254;-81
2023/09/16 08:16:22;;;;;;;0.63;0.63;;;26.00;99.90;31.00;101238.00;;;;6185773;23;20147;-81
2023/09/16 08:19:25;;;;;;;0.10;0.10;;;26.10;99.90;30.70;101216.00;;;;6184622;23;20594;-81
2023/09/16 08:22:11;;;;;;;0.95;0.65;;;26.10;99.90;30.30;101224.00;;;;6159721;23;20161;-79
2023/09/16 08:24:37;;;;;;;0.10;0.10;;;26.20;99.90;31.30;101230.00;;;;6184524;23;20143;-81
2023/09/16 08:27:06;;;;;;;0.20;0.20;;;26.60;99.90;32.20;101225.00;;;;6185120;23;20153;-81
2023/09/16 08:29:40;;;;;;;0.30;0.30;;;27.20;99.90;29.00;101279.00;;;;6158163;23;20181;-81
2023/09/16 08:32:09;;;;;;;0.28;0.28;;;26.40;99.90;29.10;101168.00;;;;6184562;23;20158;-80
2023/09/16 08:34:38;;;;;;;0.17;0.17;;;25.60;99.90;29.80;101275.00;;;;6184955;23;20159;-80
2023/09/16 08:37:11;;;;;;;0.10;0.10;;;25.50;99.90;31.10;101275.00;;;;6185121;23;20139;-80
2023/09/16 08:39:37;;;;;;;1.83;1.42;;;26.30;99.90;26.60;101313.00;;;;6186151;23;20217;-79
2023/09/16 08:42:20;;;;;;;0.38;0.38;;;25.00;99.90;27.00;101284.00;;;;6183922;23;20171;-80
2023/09/16 08:44:52;;;;;;;0.35;0.35;;;24.10;99.90;29.70;101277.00;;;;6159794;23;20201;-81
2023/09/16 08:47:33;;;;;;;0.13;0.13;;;25.00;99.90;30.00;101286.00;;;;6160012;23;20155;-77
2023/09/16 08:50:10;;;;;;;3.10;2.78;;;25.90;99.90;30.80;101248.00;;;;6183394;23;20143;-76
2023/09/16 08:52:51;;;;;;;0.30;0.30;;;26.30;99.90;29.90;101292.00;;;;6184296;23;20218;-76
2023/09/16 08:55:19;;;;;;;0.30;0.30;;;26.20;99.90;31.10;101272.00;;;;6158683;23;20550;-76
2023/09/16 08:58:03;;;;;;;0.28;0.28;;;26.40;99.90;31.40;101270.00;;;;6184753;23;20147;-77
2023/09/16 09:00:30;;;;;;;0.10;0.10;;;26.70;99.90;31.80;101265.00;;;;6197942;23;20170;-72
2023/09/16 09:03:26;;;;;;;0.15;0.15;;;27.30;99.90;31.20;101233.00;;;;6189044;23;20181;-75
2023/09/16 09:05:56;;;;;;;0.10;0.10;;;27.30;99.90;31.70;101266.00;;;;6212742;23;20596;-75
2023/09/16 09:08:22;;;;;;;0.63;0.47;;;27.10;99.90;30.40;101284.00;;;;6188783;23;20162;-73
2023/09/16 09:10:50;;;;;;;0.43;0.40;;;26.70;99.90;29.30;101286.00;;;;6216115;23;20468;-75
2023/09/16 09:13:16;;;;;;;0.30;0.30;;;26.00;99.90;30.40;101288.00;;;;6214129;23;20637;-75
2023/09/16 09:15:52;;;;;;;0.57;0.57;;;26.00;99.90;31.20;101289.00;;;;6188559;23;20479;-75
2023/09/16 09:18:42;;;;;;;1.35;1.08;;;26.40;99.90;30.00;101253.00;;;;6214218;23;20138;-75
2023/09/16 09:21:13;;;;;;;0.10;0.10;;;26.30;99.90;32.10;101271.00;;;;6189738;23;20241;-74
2023/09/16 09:23:43;;;;;;;0.80;0.80;;;27.10;99.90;31.10;101290.00;;;;6213884;23;20167;-74
2023/09/16 09:26:11;;;;;;;0.40;0.40;;;27.60;99.90;31.10;101294.00;;;;6214603;23;20150;-74
2023/09/16 09:28:40;;;;;;;0.20;0.20;;;27.40;99.90;32.00;101275.00;;;;6214172;23;20145;-75
2023/09/16 09:31:07;;;;;;;0.43;0.43;;;27.60;99.90;32.60;101260.00;;;;6188116;23;20173;-75
2023/09/16 09:33:41;;;;;;;0.10;0.10;;;28.20;99.90;32.20;101278.00;;;;6188988;23;20189;-75
2023/09/16 09:36:15;;;;;;;0.82;0.82;;;28.20;99.90;32.80;101270.00;;;;6188095;23;20181;-78
2023/09/16 09:38:48;;;;;;;0.13;0.13;;;28.10;99.90;33.50;101255.00;;;;6215644;23;20138;-74
2023/09/16 09:41:21;;;;;;;0.17;0.17;;;28.60;99.90;34.00;101242.00;;;;6214447;23;20258;-72
2023/09/16 09:43:52;;;;;;;0.20;0.20;;;29.00;99.90;33.70;101247.00;;;;6189413;23;20170;-74
2023/09/16 09:46:23;;;;;;;0.20;0.20;;;29.20;99.90;32.90;101259.00;;;;6212848;23;20571;-73
2023/09/16 09:48:55;;;;;;;0.10;0.10;;;28.90;99.90;32.90;101262.00;;;;6213356;23;20154;-73
2023/09/16 09:51:21;;;;;;;0.40;0.40;;;28.90;99.90;32.80;101270.00;;;;6189011;23;20162;-73
2023/09/16 09:53:47;;;;;;;0.17;0.17;;;28.70;99.90;32.30;101274.00;;;;6188360;23;20155;-73
2023/09/16 09:56:21;;;;;;;0.43;0.43;;;28.50;99.90;33.30;101258.00;;;;6213553;23;20193;-73
2023/09/16 09:58:49;;;;;;;0.30;0.30;;;28.80;99.90;33.20;101248.00;;;;6213779;23;20590;-73
2023/09/16 10:01:21;;;;;;;0.43;0.43;;;28.80;99.90;33.30;101256.00;;;;6189130;23;20182;-73
2023/09/16 10:03:48;;;;;;;0.47;0.47;;;28.70;99.90;33.30;101176.00;;;;6189159;23;20194;-73
2023/09/16 10:06:40;;;;;;;0.13;0.13;;;29.10;99.90;33.30;101247.00;;;;6212556;23;20156;-72
2023/09/16 10:09:12;;;;;;;0.38;0.32;;;28.80;99.90;31.80;101276.00;;;;6188445;23;20609;-73
2023/09/16 10:11:38;;;;;;;0.40;0.40;;;28.30;99.90;30.30;101303.00;;;;6215525;23;20150;-75
2023/09/16 10:14:09;;;;;;;0.10;0.10;;;27.60;99.90;31.50;101306.00;;;;6213662;23;20158;-72
2023/09/16 10:16:38;;;;;;;0.20;0.20;;;27.40;99.90;31.70;101284.00;;;;6212613;23;20146;-69
2023/09/16 10:19:09;;;;;;;3.45;2.65;;;27.80;99.90;29.30;101324.00;;;;6188027;23;20197;-73
2023/09/16 10:33:34;;;;;;;0.30;0.30;;;26.50;99.90;31.40;101297.00;;;;5050569;28;20596;-67
2023/09/16 10:36:01;;;;;;;0.55;0.55;;;27.10;99.90;32.60;101241.00;;;;5048376;28;20191;-75
2023/09/16 10:38:27;;;;;;;0.10;0.10;;;27.90;99.90;33.10;101237.00;;;;5045265;28;20229;-75
2023/09/16 10:40:53;;;;;;;0.10;0.10;;;28.60;99.90;33.40;101220.00;;;;5031395;28;20547;-75
2023/09/16 10:43:19;;;;;;;0.38;0.30;;;29.00;99.90;32.00;101216.00;;;;5047693;28;20224;-75
2023/09/16 10:45:46;;;;;;;0.10;0.10;;;28.60;99.90;32.70;101218.00;;;;5072077;28;20189;-75
2023/09/16 10:48:12;;;;;;;0.20;0.20;;;28.40;99.90;32.60;101230.00;;;;5077952;28;20213;-73
2023/09/16 10:50:48;;;;;;;0.30;0.30;;;28.70;99.90;32.30;101202.00;;;;5047366;28;20178;-73
2023/09/16 10:53:36;;;;;;;0.30;0.30;;;28.50;99.90;33.00;101201.00;;;;5062002;28;20198;-73
2023/09/16 10:56:34;;;;;;;0.20;0.20;;;28.80;99.90;32.40;101231.00;;;;5047313;28;20190;-73
2023/09/16 10:59:21;;;;;;;0.13;0.13;;;28.90;99.90;31.50;101231.00;;;;5044200;28;20191;-74
2023/09/16 11:02:36;;;;;;;3.05;1.42;;;28.60;99.90;30.50;101227.00;;;;5040616;28;20269;-73
2023/09/16 11:05:44;;;;;;;0.60;0.60;;;28.10;99.90;31.30;101261.00;;;;5048702;28;20252;-73
2023/09/16 11:08:10;;;;;;;0.10;0.10;;;28.00;99.90;32.70;101228.00;;;;5043573;28;20190;-73
2023/09/16 11:10:39;;;;;;;0.10;0.10;;;28.20;99.90;32.00;101246.00;;;;5045540;28;20197;-72
2023/09/16 11:13:12;;;;;;;1.20;0.85;;;28.10;99.90;32.50;101201.00;;;;5045424;28;20198;-73
2023/09/16 11:16:05;;;;;;;0.47;0.47;;;28.20;99.90;32.90;101211.00;;;;5047184;28;20191;-74
2023/09/16 11:18:55;;;;;;;0.10;0.10;;;28.50;99.90;33.00;101209.00;;;;5046608;28;20222;-73
2023/09/16 11:21:44;;;;;;;0.35;0.35;;;28.70;99.90;33.50;101168.00;;;;5048317;28;20190;-73
2023/09/16 11:24:13;;;;;;;1.60;1.50;;;29.00;99.90;29.90;101273.00;;;;5064380;28;20194;-72
2023/09/16 11:27:03;;;;;;;1.92;1.40;;;28.20;99.90;30.30;101266.00;;;;5047972;28;20188;-73
2023/09/16 11:29:39;;;;;;;2.17;0.85;;;27.40;99.90;31.50;101246.00;;;;5046899;28;20801;-73
2023/09/16 11:32:21;;;;;;;4.47;0.65;;;27.70;99.90;32.00;101215.00;;;;5054492;28;20609;-73
2023/09/16 11:35:03;;;;;;;3.35;2.00;;;27.90;99.90;29.50;101272.00;;;;5045772;28;20552;-73
2023/09/16 11:37:38;;;;;;;0.75;0.45;;;27.70;99.90;30.40;101267.00;;;;5045673;28;20256;-74
2023/09/16 11:40:09;;;;;;;0.10;0.10;;;27.20;99.90;30.90;101231.00;;;;5043010;28;20196;-71
2023/09/16 11:42:38;;;;;;;0.47;0.30;;;27.40;99.90;32.10;101212.00;;;;5047767;28;20806;-72
2023/09/16 11:45:17;;;;;;;0.57;0.57;;;28.10;99.90;32.40;101190.00;;;;5015865;28;20656;-72
2023/09/16 11:47:51;;;;;;;1.98;0.98;;;28.30;99.90;32.10;101225.00;;;;5018806;28;20175;-71
2023/09/16 11:51:03;;;;;;;1.65;1.08;;;28.50;99.90;30.70;101249.00;;;;5034176;28;20187;-71
2023/09/16 11:53:37;;;;;;;0.43;0.43;;;28.00;99.90;32.10;101235.00;;;;5062480;28;20201;-71
2023/09/16 11:56:26;;;;;;;1.02;0.93;;;27.80;99.90;31.40;101229.00;;;;5067474;28;20211;-71
2023/09/16 11:59:18;;;;;;;0.10;0.10;;;27.90;99.90;32.20;101225.00;;;;5068027;28;20273;-71
2023/09/16 12:01:54;;;;;;;0.55;0.55;;;27.80;99.90;31.90;101213.00;;;;5042588;28;20230;-74
2023/09/16 12:04:28;;;;;;;0.32;0.32;;;28.00;99.90;31.50;101225.00;;;;5043662;28;20182;-72
2023/09/16 12:07:06;;;;;;;0.28;0.28;;;27.90;99.90;31.10;101220.00;;;;5029224;28;20710;-72
2023/09/16 12:09:53;;;;;;;1.60;1.38;;;27.40;99.90;32.50;101203.00;;;;5033904;28;20190;-75
2023/09/16 12:12:25;;;;;;;0.10;0.10;;;27.80;99.90;33.00;101197.00;;;;5042588;28;20241;-73
2023/09/16 12:15:01;;;;;;;0.10;0.10;;;28.30;99.90;33.40;101183.00;;;;5029311;28;20210;-68
2023/09/16 12:17:49;;;;;;;0.43;0.43;;;28.70;99.90;33.40;101175.00;;;;5033184;28;20186;-67
2023/09/16 12:20:17;;;;;;;0.10;0.10;;;29.00;99.90;33.00;101155.00;;;;5048418;28;20183;-72
2023/09/16 12:22:47;;;;;;;0.65;0.65;;;28.80;99.90;32.40;101180.00;;;;5033826;28;20549;-76
2023/09/16 12:25:16;;;;;;;1.08;1.05;;;28.60;99.90;31.50;101226.00;;;;5033905;28;20182;-75
2023/09/16 12:27:44;;;;;;;0.38;0.32;;;28.20;99.90;31.90;101230.00;;;;5033635;28;20253;-72
2023/09/16 12:30:11;;;;;;;0.98;0.70;;;28.00;99.90;31.00;101226.00;;;;5034780;28;20680;-75
2023/09/16 12:32:53;;;;;;;0.10;0.10;;;28.00;99.90;31.50;101230.00;;;;5033462;28;20227;-73
2023/09/16 12:35:19;;;;;;;1.63;1.42;;;27.90;99.90;29.20;101252.00;;;;5032032;28;20658;-70
2023/09/16 12:37:45;;;;;;;0.10;0.10;;;27.30;99.90;31.60;101226.00;;;;5066837;28;20641;-74
2023/09/16 12:40:11;;;;;;;0.40;0.40;;;27.40;99.90;32.30;101192.00;;;;5030310;28;20279;-71
2023/09/16 12:42:43;;;;;;;0.47;0.47;;;28.00;99.90;32.30;101195.00;;;;5032633;28;20191;-72
2023/09/16 12:45:13;;;;;;;2.80;1.58;;;28.20;99.90;29.70;101237.00;;;;5031998;28;20199;-70
2023/09/16 12:47:40;;;;;;;0.68;0.63;;;27.40;99.90;29.40;101239.00;;;;5027028;28;20187;-71
2023/09/16 12:50:07;;;;;;;0.10;0.10;;;26.80;99.90;30.40;101242.00;;;;5032429;28;20649;-74
2023/09/16 12:52:33;;;;;;;0.10;0.10;;;26.70;99.90;31.00;101215.00;;;;5033527;28;20199;-69
2023/09/16 12:55:01;;;;;;;0.55;0.55;;;27.00;99.90;31.10;101220.00;;;;5032610;28;20185;-75
2023/09/16 12:57:48;;;;;;;0.28;0.28;;;27.20;99.90;31.20;101225.00;;;;5016461;28;20187;-75
2023/09/16 13:00:36;;;;;;;0.43;0.28;;;27.40;99.90;31.10;101222.00;;;;5065956;28;20632;-74
2023/09/16 13:03:23;;;;;;;0.10;0.10;;;27.30;99.90;31.50;101212.00;;;;5031613;28;20205;-75
2023/09/16 13:06:07;;;;;;;0.20;0.20;;;27.50;99.90;32.00;101203.00;;;;5032245;28;20630;-75
2023/09/16 13:08:51;;;;;;;0.20;0.13;;;27.70;99.90;30.60;101225.00;;;;5016782;28;20190;-75
2023/09/16 13:11:26;;;;;;;0.10;0.10;;;27.30;99.90;31.60;101204.00;;;;5038165;28;20898;-75
2023/09/16 13:14:14;;;;;;;0.22;0.22;;;27.50;99.90;31.30;101220.00;;;;5015378;28;20194;-74
2023/09/16 13:17:05;;;;;;;0.38;0.38;;;27.60;99.90;29.80;101242.00;;;;5031846;28;20273;-74
2023/09/16 13:20:00;;;;;;;1.38;1.27;;;26.70;99.90;30.90;101231.00;;;;5024329;28;20186;-74
2023/09/16 13:22:36;;;;;;;0.57;0.57;;;27.00;99.90;31.60;101218.00;;;;5027918;28;20179;-84
2023/09/16 13:28:35;;;;;;;0.73;0.73;;;27.40;99.90;31.20;101228.00;;;;5032510;28;20308;-73
2023/09/16 13:31:12;;;;;;;0.63;0.60;;;27.40;99.90;30.80;101226.00;;;;5032352;28;20244;-74
2023/09/16 13:34:05;;;;;;;0.38;0.38;;;27.30;99.90;32.30;101203.00;;;;5064752;28;20190;-74
2023/09/16 13:36:49;;;;;;;0.77;0.73;;;27.80;99.90;30.70;101213.00;;;;5054797;28;20269;-74
2023/09/16 13:39:41;;;;;;;0.15;0.15;;;27.60;99.90;31.10;101179.00;;;;5031661;28;20793;-74
2023/09/16 13:42:09;;;;;;;0.70;0.65;;;27.20;99.90;31.90;101207.00;;;;5027850;28;20548;-74
2023/09/16 13:45:16;;;;;;;0.68;0.30;;;27.60;99.90;31.50;101214.00;;;;5032339;28;20175;-74
2023/09/16 13:48:15;;;;;;;0.20;0.20;;;27.60;99.90;31.80;101179.00;;;;5030404;28;20221;-74
2023/09/16 13:51:02;;;;;;;0.10;0.10;;;27.70;99.90;32.60;101196.00;;;;5040708;28;20197;-75
2023/09/16 13:53:55;;;;;;;0.43;0.43;;;27.90;99.90;32.40;101205.00;;;;5031984;28;20285;-75
2023/09/16 13:56:43;;;;;;;0.20;0.20;;;28.10;99.90;32.20;101210.00;;;;5032124;28;20201;-74
2023/09/16 13:59:46;;;;;;;1.50;0.85;;;28.00;99.90;32.60;101180.00;;;;5019237;28;20179;-75
2023/09/16 14:02:32;;;;;;;0.30;0.22;;;28.10;99.90;32.70;101187.00;;;;5019418;28;20204;-77
2023/09/16 14:05:27;;;;;;;0.13;0.13;;;28.20;99.90;32.30;101196.00;;;;5014180;28;20219;-74
2023/09/16 14:08:20;;;;;;;0.73;0.65;;;28.10;99.90;31.10;101223.00;;;;5030983;28;20194;-74
2023/09/16 14:11:21;;;;;;;0.43;0.43;;;27.60;99.90;31.10;101227.00;;;;5032093;28;20285;-72
2023/09/16 14:14:07;;;;;;;0.40;0.40;;;27.10;99.90;30.80;101237.00;;;;5031757;28;20226;-70
2023/09/16 14:17:11;;;;;;;0.20;0.20;;;27.30;99.90;31.10;101222.00;;;;5028961;28;20265;-74
2023/09/16 14:19:57;;;;;;;0.52;0.52;;;27.30;99.90;31.40;101228.00;;;;5028097;28;20183;-70
2023/09/16 14:22:41;;;;;;;0.52;0.52;;;27.50;99.90;30.90;101226.00;;;;5029053;28;20186;-72
2023/09/16 14:25:32;;;;;;;0.65;0.65;;;27.40;99.90;31.00;101219.00;;;;5048305;28;20190;-71
2023/09/16 14:28:16;;;;;;;0.40;0.40;;;27.60;99.90;30.90;101212.00;;;;5017869;28;20182;-72
2023/09/16 14:30:45;;;;;;;0.17;0.17;;;27.30;99.90;31.00;101208.00;;;;5031168;28;20187;-81
2023/09/16 14:33:30;;;;;;;0.22;0.22;;;27.30;99.90;30.00;101221.00;;;;5031193;28;20230;-74
2023/09/16 14:35:59;;;;;;;0.10;0.10;;;26.80;99.90;31.50;101213.00;;;;5025381;28;20232;-77
2023/09/16 14:39:00;;;;;;;0.20;0.20;;;27.00;99.90;31.90;101204.00;;;;5015766;28;20187;-77
2023/09/16 14:41:49;;;;;;;0.20;0.20;;;27.50;99.90;31.30;101202.00;;;;5041684;28;20274;-78
2023/09/16 14:44:36;;;;;;;0.88;0.88;;;27.40;99.90;31.30;101206.00;;;;5033863;28;20225;-84
2023/09/16 14:47:20;;;;;;;0.35;0.35;;;27.30;99.90;31.60;101202.00;;;;5022140;28;20592;-78
2023/09/16 14:50:10;;;;;;;0.75;0.75;;;27.30;99.90;31.60;101200.00;;;;5025225;28;20230;-70
2023/09/16 14:52:54;;;;;;;0.10;0.10;;;27.30;99.90;32.20;101199.00;;;;5017121;28;20226;-77
2023/09/16 14:56:04;;;;;;;0.32;0.32;;;27.50;99.90;31.10;101203.00;;;;5047380;28;20194;-76
2023/09/16 14:58:52;;;;;;;0.75;0.75;;;27.40;99.90;30.90;101222.00;;;;5033709;28;20191;-76
2023/09/16 15:01:24;;;;;;;0.55;0.55;;;27.20;99.90;31.60;101198.00;;;;5030989;28;20189;-67
2023/09/16 15:03:54;;;;;;;0.25;0.25;;;27.20;99.90;30.90;101213.00;;;;5032637;28;20547;-76
2023/09/16 15:06:38;;;;;;;0.40;0.38;;;27.10;99.90;30.80;101192.00;;;;5015330;28;20274;-71
2023/09/16 15:09:12;;;;;;;0.10;0.10;;;26.90;99.90;31.20;101213.00;;;;5012182;28;20300;-71
2023/09/16 15:11:47;;;;;;;0.75;0.75;;;27.00;99.90;31.20;101209.00;;;;5031838;28;20194;-75
2023/09/16 15:14:16;;;;;;;0.22;0.22;;;27.20;99.90;30.90;101215.00;;;;5018295;28;20691;-70
2023/09/16 15:17:11;;;;;;;0.30;0.30;;;27.00;99.90;31.60;101162.00;;;;5029512;28;20228;-78
2023/09/16 15:19:37;;;;;;;1.90;0.30;;;27.20;99.90;30.90;101179.00;;;;5017535;28;20214;-71
2023/09/16 15:22:33;;;;;;;0.10;0.10;;;27.10;99.90;31.40;101193.00;;;;5034899;28;20206;-70
2023/09/16 15:25:01;;;;;;;0.10;0.10;;;27.00;99.90;31.60;101200.00;;;;5035543;28;20236;-80
2023/09/16 15:27:52;;;;;;;0.10;0.10;;;27.20;99.90;30.10;101195.00;;;;5068196;28;20191;-75
2023/09/16 15:30:26;;;;;;;0.30;0.22;;;26.80;99.90;30.10;101172.00;;;;5018921;28;20680;-74
2023/09/16 15:33:02;;;;;;;0.17;0.17;;;26.60;99.90;29.90;101181.00;;;;5034400;28;20214;-79
2023/09/16 15:35:35;;;;;;;0.47;0.47;;;26.30;99.90;30.50;101178.00;;;;5025764;28;20195;-85
2023/09/16 15:38:06;;;;;;;0.10;0.10;;;26.40;99.90;30.70;101197.00;;;;5032925;28;20198;-84
2023/09/16 15:40:47;;;;;;;0.17;0.17;;;26.60;99.90;31.00;101104.00;;;;5033571;28;20643;-78
2023/09/16 15:43:32;;;;;;;1.00;1.00;;;26.80;99.90;30.70;101195.00;;;;5024641;28;20182;-75
2023/09/16 15:46:15;;;;;;;0.10;0.10;;;26.80;99.90;30.80;101178.00;;;;5034107;28;20206;-75
2023/09/16 15:48:59;;;;;;;0.10;0.10;;;26.80;99.90;30.30;101148.00;;;;5051210;28;20178;-70
2023/09/16 15:51:36;;;;;;;0.10;0.10;;;26.60;99.90;30.10;101155.00;;;;5067770;28;20193;-80
2023/09/16 15:54:20;;;;;;;0.20;0.20;;;26.40;99.90;31.00;101132.00;;;;5030841;28;20184;-76
2023/09/16 15:57:04;;;;;;;0.65;0.40;;;26.60;99.90;30.40;101166.00;;;;5017649;28;20182;-76
2023/09/16 15:59:47;;;;;;;0.90;0.57;;;26.60;99.90;30.40;101161.00;;;;5050930;28;20202;-79
2023/09/16 16:02:21;;;;;;;0.30;0.30;;;26.40;99.90;30.30;101168.00;;;;5034481;28;20684;-73
2023/09/16 16:05:08;;;;;;;0.10;0.10;;;26.40;99.90;29.70;101126.00;;;;5026604;28;20201;-71
2023/09/16 16:07:54;;;;;;;0.38;0.38;;;26.20;99.90;29.50;101149.00;;;;5067089;28;20198;-72
2023/09/16 16:10:25;;;;;;;1.50;0.77;;;26.20;99.90;30.00;101125.00;;;;5017218;28;20637;-86
2023/09/16 16:12:56;;;;;;;0.45;0.45;;;26.10;99.90;30.30;101141.00;;;;5024706;28;20568;-78
2023/09/16 16:15:49;;;;;;;2.13;1.08;;;26.20;99.90;30.00;101128.00;;;;5013946;28;20207;-74
2023/09/16 16:18:30;;;;;;;0.10;0.10;;;26.10;99.90;29.60;101125.00;;;;5033022;28;20191;-76
2023/09/16 16:21:17;;;;;;;2.53;1.27;;;26.00;99.90;30.40;101124.00;;;;5035250;28;20206;-75
2023/09/16 16:24:30;;;;;;;0.10;0.10;;;26.20;99.90;30.50;101135.00;;;;5047688;28;20179;-75
2023/09/16 16:27:13;;;;;;;0.43;0.43;;;26.20;99.90;29.10;101085.00;;;;5019826;28;20274;-77
2023/09/16 16:29:46;;;;;;;0.28;0.22;;;26.10;99.90;29.60;101114.00;;;;5028688;28;20194;-75
2023/09/16 16:32:41;;;;;;;0.63;0.63;;;26.00;99.90;29.50;101086.00;;;;5034319;28;20226;-78
2023/09/16 16:35:27;;;;;;;0.10;0.10;;;25.80;99.90;29.60;101081.00;;;;5066040;28;20660;-74
2023/09/16 16:38:07;;;;;;;0.35;0.35;;;25.70;99.90;29.80;101113.00;;;;5065731;28;20206;-75
2023/09/16 16:41:08;;;;;;;0.10;0.10;;;26.00;99.90;30.00;101121.00;;;;5029240;28;20191;-76
2023/09/16 16:44:24;;;;;;;0.10;0.10;;;26.00;99.90;30.40;101119.00;;;;5031022;28;20182;-75
2023/09/16 16:46:53;;;;;;;0.47;0.47;;;26.00;99.90;30.30;101124.00;;;;5039906;28;20202;-74
2023/09/16 16:49:40;;;;;;;0.10;0.10;;;26.10;99.90;30.30;101130.00;;;;5031525;28;20644;-77
2023/09/16 16:52:16;;;;;;;0.10;0.10;;;26.20;99.90;30.10;101085.00;;;;5001870;28;20569;-73
2023/09/16 16:54:45;;;;;;;0.47;0.47;;;26.00;99.90;30.00;101093.00;;;;5033553;28;20195;-72
2023/09/16 16:57:18;;;;;;;0.35;0.35;;;26.00;99.90;30.20;101126.00;;;;5033279;28;20194;-72
2023/09/16 17:00:05;;;;;;;0.98;0.60;;;26.10;99.90;30.00;101122.00;;;;5032199;28;20226;-72
2023/09/16 17:02:54;;;;;;;0.10;0.10;;;26.00;99.90;30.80;101131.00;;;;5028447;28;20218;-72
2023/09/16 17:05:45;;;;;;;0.20;0.20;;;26.10;99.90;30.20;101133.00;;;;5033260;28;20186;-72
2023/09/16 17:08:20;;;;;;;0.20;0.20;;;26.10;99.90;29.90;101122.00;;;;5048752;28;20202;-72
2023/09/16 17:11:04;;;;;;;0.93;0.93;;;25.90;99.90;29.90;101119.00;;;;5032194;28;20193;-72
2023/09/16 17:13:45;;;;;;;0.20;0.20;;;25.90;99.90;30.10;101121.00;;;;5021005;28;20209;-72
2023/09/16 17:16:52;;;;;;;0.10;0.10;;;26.00;99.90;30.40;101123.00;;;;5033318;28;20237;-73
2023/09/16 17:19:52;;;;;;;0.20;0.20;;;26.10;99.90;29.80;101116.00;;;;5031329;28;20183;-72
2023/09/16 17:22:20;;;;;;;0.20;0.20;;;25.80;99.90;29.40;101096.00;;;;5033477;28;20183;-72
2023/09/16 17:24:49;;;;;;;1.40;0.40;;;25.70;99.90;29.50;101100.00;;;;5032337;28;20186;-72
2023/09/16 17:27:15;;;;;;;0.65;0.65;;;25.60;99.90;29.30;101092.00;;;;5032335;28;20649;-72
2023/09/16 17:29:48;;;;;;;0.50;0.50;;;25.60;99.90;29.40;101093.00;;;;5033806;28;20255;-72
2023/09/16 17:32:34;;;;;;;0.20;0.20;;;25.60;99.90;28.90;101086.00;;;;5032063;28;20298;-72
2023/09/16 17:35:04;;;;;;;0.40;0.40;;;25.50;99.90;29.20;101085.00;;;;5030927;28;20281;-72
2023/09/16 17:37:48;;;;;;;0.35;0.35;;;25.30;99.90;29.70;101083.00;;;;5015858;28;20183;-72
2023/09/16 17:40:49;;;;;;;0.20;0.20;;;25.40;99.90;29.70;101099.00;;;;5036356;28;20707;-73
2023/09/16 17:43:33;;;;;;;0.22;0.22;;;25.60;99.90;30.10;101104.00;;;;5031256;28;20214;-74
2023/09/16 17:46:06;;;;;;;0.38;0.38;;;25.60;99.90;30.20;101122.00;;;;5028489;28;20190;-73
2023/09/16 17:48:39;;;;;;;0.40;0.40;;;25.70;99.90;29.70;101102.00;;;;5057599;28;20214;-73
2023/09/16 17:51:25;;;;;;;0.50;0.50;;;25.60;99.90;29.40;101099.00;;;;5031651;28;20178;-73
2023/09/16 17:54:09;;;;;;;0.40;0.40;;;25.60;99.90;29.60;101099.00;;;;5022310;28;20213;-73
2023/09/16 17:56:38;;;;;;;0.20;0.20;;;25.50;99.90;28.90;101079.00;;;;5032025;28;20182;-73
2023/09/16 17:59:05;;;;;;;0.73;0.65;;;25.40;99.90;29.00;101076.00;;;;5032394;28;20187;-73
2023/09/16 18:01:34;;;;;;;0.38;0.38;;;25.20;99.90;29.20;101080.00;;;;5015879;28;20190;-73
2023/09/16 18:04:00;;;;;;;0.20;0.20;;;25.20;99.90;28.50;101072.00;;;;5031654;28;20190;-73
2023/09/16 18:06:28;;;;;;;0.38;0.38;;;25.00;99.90;29.10;101071.00;;;;5033456;28;20638;-73
2023/09/16 18:08:57;;;;;;;0.47;0.47;;;25.00;99.90;29.00;101082.00;;;;5043092;28;20202;-73
2023/09/16 18:11:26;;;;;;;0.40;0.40;;;25.00;99.90;29.30;101095.00;;;;5015095;28;20190;-73
2023/09/16 18:13:52;;;;;;;0.43;0.43;;;25.30;99.90;29.40;101091.00;;;;5032912;28;20202;-73
2023/09/16 18:16:21;;;;;;;0.20;0.20;;;25.30;99.90;28.70;101086.00;;;;5032256;28;20652;-74
2023/09/16 18:18:47;;;;;;;0.30;0.30;;;25.20;99.90;28.60;101079.00;;;;5031206;28;20179;-73
2023/09/16 18:21:13;;;;;;;0.55;0.55;;;24.90;99.90;28.90;101068.00;;;;5031971;28;20193;-73
2023/09/16 18:23:39;;;;;;;0.20;0.20;;;24.90;99.90;28.30;101074.00;;;;5030963;28;20198;-73
2023/09/16 18:26:10;;;;;;;2.15;1.25;;;24.90;99.90;28.40;101079.00;;;;5032220;28;20244;-73
2023/09/16 18:28:37;;;;;;;0.20;0.20;;;24.70;99.90;28.40;101081.00;;;;5064545;28;20193;-73
2023/09/16 18:31:03;;;;;;;0.75;0.75;;;24.70;99.90;28.30;101091.00;;;;5028062;28;20222;-73
2023/09/16 18:33:30;;;;;;;0.20;0.20;;;24.60;99.90;28.10;101086.00;;;;5031035;28;20215;-73
2023/09/16 18:35:56;;;;;;;0.43;0.43;;;24.50;99.90;28.10;101105.00;;;;5032013;28;20649;-72
2023/09/16 18:38:22;;;;;;;0.20;0.20;;;24.60;99.90;27.90;101085.00;;;;5034286;28;20187;-73
2023/09/16 18:40:52;;;;;;;0.25;0.25;;;24.40;99.90;28.30;101110.00;;;;5031010;28;20182;-73
2023/09/16 18:43:18;;;;;;;0.35;0.35;;;24.40;99.90;27.60;101110.00;;;;5031571;28;20652;-74
2023/09/16 18:45:47;;;;;;;0.20;0.20;;;24.40;99.90;28.40;101118.00;;;;5032679;28;20256;-73
2023/09/16 18:48:14;;;;;;;0.38;0.38;;;24.40;99.90;28.10;101110.00;;;;5032350;28;20572;-73
2023/09/16 18:50:42;;;;;;;1.83;1.63;;;24.50;99.90;28.00;101108.00;;;;5031037;28;20183;-72
2023/09/16 18:53:09;;;;;;;0.47;0.47;;;24.40;99.90;28.20;101118.00;;;;5031719;28;20199;-72
2023/09/16 18:55:44;;;;;;;0.60;0.60;;;24.40;99.90;27.20;101111.00;;;;5052356;28;20695;-73
2023/09/16 18:58:13;;;;;;;1.58;1.48;;;24.10;99.90;27.60;101143.00;;;;5035340;28;20208;-72